createdAt,value
2022-09-30T00:01:29.308Z,5.00
2022-09-30T00:03:57.296Z,5.00
2022-09-30T00:06:27.540Z,4.99
2022-09-30T00:08:54.737Z,4.88
2022-09-30T00:11:25.867Z,4.91
2022-09-30T00:13:55.823Z,4.95
2022-09-30T00:16:24.824Z,4.83
2022-09-30T00:18:56.447Z,4.66
2022-09-30T00:21:24.485Z,4.52
2022-09-30T00:23:51.929Z,4.40
2022-09-30T00:26:22.179Z,4.34
2022-09-30T00:28:54.834Z,4.22
2022-09-30T00:31:22.806Z,3.95
2022-09-30T00:34:07.362Z,3.79
2022-09-30T00:36:50.088Z,3.81
2022-09-30T00:39:23.872Z,3.98
2022-09-30T00:41:54.208Z,4.09
2022-09-30T00:44:53.631Z,4.12
2022-09-30T00:47:42.513Z,4.18
2022-09-30T00:50:15.443Z,4.26
2022-09-30T00:52:48.485Z,4.38
2022-09-30T00:55:27.964Z,4.50
2022-09-30T00:57:56.428Z,4.51
2022-09-30T01:00:23.120Z,4.54
2022-09-30T01:02:50.140Z,4.52
2022-09-30T01:05:20.549Z,4.48
2022-09-30T01:07:48.063Z,4.46
2022-09-30T01:10:14.966Z,4.51
2022-09-30T01:12:41.823Z,4.53
2022-09-30T01:15:09.737Z,4.50
2022-09-30T01:17:49.708Z,4.52
2022-09-30T01:20:52.148Z,4.53
2022-09-30T01:23:53.298Z,4.53
2022-09-30T01:27:00.855Z,4.43
2022-09-30T01:29:52.792Z,4.44
2022-09-30T01:32:45.743Z,4.34
2022-09-30T01:35:24.639Z,4.19
2022-09-30T01:38:16.124Z,4.11
2022-09-30T01:40:51.757Z,4.04
2022-09-30T01:43:37.979Z,3.98
2022-09-30T01:46:32.762Z,4.04
2022-09-30T01:49:22.085Z,4.04
2022-09-30T01:52:12.126Z,4.04
2022-09-30T01:54:48.090Z,4.04
2022-09-30T01:57:23.621Z,4.01
2022-09-30T02:00:03.908Z,4.00
2022-09-30T02:02:34.259Z,3.99
2022-09-30T02:05:14.130Z,4.01
2022-09-30T02:07:45.718Z,4.14
2022-09-30T02:10:19.724Z,4.22
2022-09-30T02:12:52.261Z,4.23
2022-09-30T02:15:26.793Z,4.29
2022-09-30T02:17:58.655Z,4.30
2022-09-30T02:20:28.478Z,4.31
2022-09-30T02:23:26.117Z,4.32
2022-09-30T02:26:06.187Z,4.27
2022-09-30T02:28:34.995Z,4.26
2022-09-30T02:31:04.945Z,4.28
2022-09-30T02:33:37.495Z,4.27
2022-09-30T02:36:38.084Z,4.17
2022-09-30T02:39:33.034Z,4.11
2022-09-30T02:42:11.857Z,4.08
2022-09-30T02:44:39.016Z,4.11
2022-09-30T02:47:31.637Z,4.13
2022-09-30T02:50:23.779Z,3.99
2022-09-30T02:53:22.471Z,3.97
2022-09-30T02:56:33.736Z,4.05
2022-09-30T02:59:00.704Z,4.10
2022-09-30T03:01:27.364Z,4.05
2022-09-30T03:04:02.638Z,4.01
2022-09-30T03:06:29.656Z,4.01
2022-09-30T03:08:56.756Z,3.96
2022-09-30T03:11:26.623Z,3.87
2022-09-30T03:14:19.459Z,3.76
2022-09-30T03:17:10.114Z,3.59
2022-09-30T03:19:45.887Z,3.45
2022-09-30T03:22:59.452Z,3.29
2022-09-30T03:25:46.467Z,3.20
2022-09-30T03:28:28.197Z,3.12
2022-09-30T03:31:12.369Z,3.06
2022-09-30T03:34:02.531Z,3.15
2022-09-30T03:36:37.991Z,3.31
2022-09-30T03:39:31.232Z,3.40
2022-09-30T03:42:24.198Z,3.36
2022-09-30T03:45:17.815Z,3.32
2022-09-30T03:47:48.799Z,3.33
2022-09-30T03:50:20.828Z,3.30
2022-09-30T03:52:49.823Z,3.26
2022-09-30T03:55:19.982Z,3.21
2022-09-30T03:57:46.758Z,3.13
2022-09-30T04:00:13.655Z,3.12
2022-09-30T04:02:40.494Z,3.03
2022-09-30T04:05:08.651Z,2.96
2022-09-30T04:07:36.175Z,2.87
2022-09-30T04:10:02.941Z,2.96
2022-09-30T04:12:29.868Z,3.16
2022-09-30T04:14:57.881Z,3.44
2022-09-30T04:17:26.148Z,3.65
2022-09-30T04:19:52.737Z,3.73
2022-09-30T04:22:23.116Z,3.69
2022-09-30T04:24:52.262Z,3.58
2022-09-30T04:27:19.528Z,3.56
2022-09-30T04:29:46.192Z,3.59
2022-09-30T04:32:12.837Z,3.60
2022-09-30T04:34:39.627Z,3.56
2022-09-30T04:37:10.575Z,3.59
2022-09-30T04:39:37.590Z,3.60
2022-09-30T04:42:04.834Z,3.55
2022-09-30T04:44:31.550Z,3.44
2022-09-30T04:46:58.347Z,3.38
2022-09-30T04:49:25.152Z,3.42
2022-09-30T04:51:51.937Z,3.53
2022-09-30T04:54:19.188Z,3.57
2022-09-30T04:56:46.166Z,3.61
2022-09-30T04:59:13.244Z,3.62
2022-09-30T05:01:42.646Z,3.55
2022-09-30T05:04:09.709Z,3.43
2022-09-30T05:06:36.894Z,3.31
2022-09-30T05:09:04.771Z,3.21
2022-09-30T05:11:31.805Z,3.11
2022-09-30T05:13:58.384Z,3.04
2022-09-30T05:16:28.233Z,3.02
2022-09-30T05:18:54.978Z,2.99
2022-09-30T05:21:21.534Z,3.03
2022-09-30T05:23:48.481Z,3.09
2022-09-30T05:26:16.061Z,3.18
2022-09-30T05:28:43.381Z,3.48
2022-09-30T05:31:12.551Z,3.59
2022-09-30T05:33:39.756Z,3.63
2022-09-30T05:36:08.404Z,3.65
2022-09-30T05:38:36.436Z,3.74
2022-09-30T05:41:13.359Z,3.91
2022-09-30T05:43:41.643Z,3.91
2022-09-30T05:46:08.403Z,3.85
2022-09-30T05:48:35.285Z,3.77
2022-09-30T05:51:02.348Z,3.75
2022-09-30T05:53:32.310Z,3.80
2022-09-30T05:55:59.696Z,3.87
2022-09-30T05:58:27.771Z,3.88
2022-09-30T06:00:54.489Z,3.75
2022-09-30T06:03:21.091Z,3.80
2022-09-30T06:05:48.092Z,3.61
2022-09-30T06:08:15.022Z,3.30
2022-09-30T06:10:43.571Z,3.12
2022-09-30T06:13:11.320Z,3.10
2022-09-30T06:15:41.453Z,3.14
2022-09-30T06:18:08.973Z,3.25
2022-09-30T06:20:37.250Z,3.21
2022-09-30T06:23:04.382Z,3.21
2022-09-30T06:25:32.110Z,3.19
2022-09-30T06:27:59.164Z,3.45
2022-09-30T06:30:25.950Z,3.60
2022-09-30T06:32:54.213Z,3.61
2022-09-30T06:35:22.122Z,3.78
2022-09-30T06:37:51.762Z,3.92
2022-09-30T06:40:21.398Z,4.10
2022-09-30T06:42:49.791Z,4.10
2022-09-30T06:45:29.683Z,4.05
2022-09-30T06:48:00.868Z,4.17
2022-09-30T06:50:28.509Z,4.22
2022-09-30T06:53:06.448Z,4.44
2022-09-30T06:55:36.635Z,4.60
2022-09-30T06:58:03.374Z,4.76
2022-09-30T07:00:30.374Z,4.91
2022-09-30T07:02:57.435Z,4.98
2022-09-30T07:05:27.892Z,4.93
2022-09-30T07:07:54.755Z,4.76
2022-09-30T07:10:21.507Z,4.81
2022-09-30T07:12:52.415Z,4.88
2022-09-30T07:15:22.341Z,4.96
2022-09-30T07:17:59.358Z,5.06
2022-09-30T07:20:26.124Z,5.15
2022-09-30T07:22:52.935Z,5.20
2022-09-30T07:25:21.132Z,5.30
2022-09-30T07:27:48.572Z,5.40
2022-09-30T07:30:24.566Z,5.48
2022-09-30T07:32:53.629Z,5.58
2022-09-30T07:35:20.279Z,5.63
2022-09-30T07:37:46.879Z,5.69
2022-09-30T07:40:13.652Z,5.83
2022-09-30T07:42:46.093Z,6.10
2022-09-30T07:45:17.269Z,6.10
2022-09-30T07:47:44.253Z,6.25
2022-09-30T07:50:13.421Z,6.34
2022-09-30T07:52:42.426Z,6.25
2022-09-30T07:55:09.125Z,6.38
2022-09-30T07:57:35.802Z,6.42
2022-09-30T08:00:17.346Z,6.48
2022-09-30T08:02:49.203Z,6.58
2022-09-30T08:05:15.852Z,6.65
2022-09-30T08:07:42.447Z,6.78
2022-09-30T08:10:09.786Z,6.99
2022-09-30T08:12:37.595Z,7.75
2022-09-30T08:15:06.197Z,8.24
2022-09-30T08:17:33.106Z,8.33
2022-09-30T08:19:59.820Z,8.05
2022-09-30T08:22:26.568Z,7.93
2022-09-30T08:24:53.710Z,8.03
2022-09-30T08:27:20.818Z,8.09
2022-09-30T08:29:55.253Z,8.11
2022-09-30T08:32:23.280Z,8.20
2022-09-30T08:34:49.826Z,8.12
2022-09-30T08:37:16.396Z,8.09
2022-09-30T08:39:43.776Z,8.00
2022-09-30T08:42:37.937Z,8.11
2022-09-30T08:45:38.124Z,8.21
2022-09-30T08:50:51.565Z,8.30
2022-09-30T08:53:27.218Z,8.47
2022-09-30T08:55:58.143Z,8.60
2022-09-30T08:58:34.123Z,8.84
2022-09-30T09:01:27.625Z,8.94
2022-09-30T09:03:54.668Z,9.05
2022-09-30T09:06:33.932Z,9.05
2022-09-30T09:09:19.357Z,9.09
2022-09-30T09:12:01.645Z,9.11
2022-09-30T09:14:40.443Z,9.30
2022-09-30T09:17:16.406Z,9.33
2022-09-30T09:20:07.690Z,9.29
2022-09-30T09:22:35.707Z,9.36
2022-09-30T09:25:04.890Z,9.44
2022-09-30T09:27:55.178Z,9.67
2022-09-30T09:30:26.357Z,9.72
2022-09-30T09:32:57.261Z,9.69
2022-09-30T09:35:48.961Z,9.71
2022-09-30T09:38:25.230Z,9.90
2022-09-30T09:40:57.965Z,9.52
2022-09-30T09:43:42.435Z,9.76
2022-09-30T09:46:34.718Z,9.90
2022-09-30T09:49:13.691Z,9.92
2022-09-30T09:51:47.339Z,9.86
2022-09-30T09:54:19.088Z,10.02
2022-09-30T09:56:45.636Z,10.16
2022-09-30T09:59:19.340Z,10.11
2022-09-30T10:01:53.754Z,10.11
2022-09-30T10:04:27.058Z,10.11
2022-09-30T10:07:12.177Z,10.39
2022-09-30T10:09:43.142Z,10.64
2022-09-30T10:12:09.771Z,10.75
2022-09-30T10:14:48.610Z,10.85
2022-09-30T10:17:35.981Z,10.70
2022-09-30T10:20:23.283Z,10.61
2022-09-30T10:23:01.256Z,10.59
2022-09-30T10:25:28.233Z,10.56
2022-09-30T10:28:00.409Z,10.64
2022-09-30T10:30:43.214Z,10.76
2022-09-30T10:33:21.681Z,10.70
2022-09-30T10:35:54.184Z,10.83
2022-09-30T10:38:23.186Z,10.98
2022-09-30T10:40:52.327Z,11.16
2022-09-30T10:43:23.888Z,11.39
2022-09-30T10:46:13.837Z,11.58
2022-09-30T10:48:41.465Z,11.82
2022-09-30T10:51:31.835Z,11.99
2022-09-30T10:53:59.332Z,11.90
2022-09-30T10:56:52.608Z,12.18
2022-09-30T10:59:32.107Z,11.93
2022-09-30T11:02:31.128Z,11.63
2022-09-30T11:05:18.732Z,11.43
2022-09-30T11:07:52.655Z,11.35
2022-09-30T11:10:57.333Z,11.12
2022-09-30T11:13:29.359Z,10.76
2022-09-30T11:16:39.299Z,10.68
2022-09-30T11:19:11.671Z,10.57
2022-09-30T11:21:55.579Z,10.88
2022-09-30T11:24:43.967Z,10.94
2022-09-30T11:27:32.170Z,10.96
2022-09-30T11:30:01.618Z,11.07
2022-09-30T11:32:56.265Z,11.13
2022-09-30T11:35:34.105Z,11.20
2022-09-30T11:38:06.889Z,11.38
2022-09-30T11:41:05.047Z,11.56
2022-09-30T11:43:39.755Z,11.76
2022-09-30T11:46:30.257Z,12.04
2022-09-30T11:49:06.810Z,11.91
2022-09-30T11:51:49.708Z,11.77
2022-09-30T11:54:24.414Z,11.95
2022-09-30T11:57:09.951Z,12.16
2022-09-30T11:59:44.565Z,12.38
2022-09-30T12:02:26.216Z,12.57
2022-09-30T12:04:58.347Z,12.94
2022-09-30T12:07:47.613Z,13.17
2022-09-30T12:10:21.574Z,13.11
2022-09-30T12:12:55.727Z,12.92
2022-09-30T12:15:27.279Z,12.25
2022-09-30T12:18:12.508Z,12.76
2022-09-30T12:20:47.134Z,12.94
2022-09-30T12:23:46.585Z,12.97
2022-09-30T12:26:15.536Z,13.40
2022-09-30T12:29:16.393Z,13.49
2022-09-30T12:31:43.066Z,13.71
2022-09-30T12:34:52.183Z,13.83
2022-09-30T12:37:37.329Z,14.13
2022-09-30T12:40:24.344Z,14.41
2022-09-30T12:43:03.379Z,14.50
2022-09-30T12:45:48.998Z,14.67
2022-09-30T12:48:21.357Z,14.65
2022-09-30T12:50:55.151Z,14.83
2022-09-30T12:53:28.256Z,14.04
2022-09-30T12:56:03.713Z,13.36
2022-09-30T12:58:58.162Z,13.14
2022-09-30T13:01:28.716Z,13.34
2022-09-30T13:04:01.416Z,13.59
2022-09-30T13:06:50.818Z,13.60
2022-09-30T13:09:17.663Z,13.93
2022-09-30T13:11:44.469Z,14.09
2022-09-30T13:14:35.697Z,14.41
2022-09-30T13:17:08.597Z,14.40
2022-09-30T13:19:41.160Z,14.74
2022-09-30T13:22:29.992Z,14.84
2022-09-30T13:25:05.817Z,14.54
2022-09-30T13:27:41.857Z,14.19
2022-09-30T13:30:08.624Z,14.13
2022-09-30T13:32:37.813Z,13.99
2022-09-30T13:35:43.461Z,13.78
2022-09-30T13:38:13.092Z,13.46
2022-09-30T13:41:19.448Z,14.06
2022-09-30T13:44:17.049Z,14.63
2022-09-30T13:46:51.861Z,14.79
2022-09-30T13:49:41.752Z,14.69
2022-09-30T13:52:19.565Z,14.83
2022-09-30T13:54:48.458Z,14.76
2022-09-30T13:57:26.104Z,14.81
2022-09-30T14:00:04.986Z,14.58
2022-09-30T14:02:43.485Z,14.68
2022-09-30T14:05:29.223Z,14.69
2022-09-30T14:08:14.009Z,14.65
2022-09-30T14:10:57.530Z,14.76
2022-09-30T14:13:32.514Z,14.85
2022-09-30T14:16:18.492Z,14.71
2022-09-30T14:19:06.681Z,14.50
2022-09-30T14:21:45.098Z,14.38
2022-09-30T14:24:17.713Z,14.31
2022-09-30T14:27:21.788Z,14.11
2022-09-30T14:30:01.655Z,13.93
2022-09-30T14:32:43.512Z,13.81
2022-09-30T14:35:17.132Z,14.11
2022-09-30T14:37:48.746Z,14.24
2022-09-30T14:40:24.119Z,14.20
2022-09-30T14:42:51.955Z,14.06
2022-09-30T14:45:26.876Z,14.08
2022-09-30T14:47:58.207Z,13.95
2022-09-30T14:50:28.642Z,14.08
2022-09-30T14:52:58.695Z,14.00
2022-09-30T14:55:30.708Z,13.86
2022-09-30T14:58:31.224Z,13.88
2022-09-30T15:01:13.038Z,13.77
2022-09-30T15:03:43.266Z,13.55
2022-09-30T15:06:31.142Z,13.50
2022-09-30T15:09:05.339Z,13.65
2022-09-30T15:11:39.363Z,13.92
2022-09-30T15:14:15.481Z,13.55
2022-09-30T15:16:53.656Z,13.70
2022-09-30T15:19:26.158Z,13.71
2022-09-30T15:22:02.083Z,13.74
2022-09-30T15:24:33.145Z,13.65
2022-09-30T15:27:04.122Z,13.56
2022-09-30T15:29:30.971Z,13.54
2022-09-30T15:32:22.357Z,13.59
2022-09-30T15:34:53.111Z,13.39
2022-09-30T15:37:38.888Z,13.02
2022-09-30T15:40:34.176Z,12.38
2022-09-30T15:43:06.453Z,12.38
2022-09-30T15:45:39.495Z,12.45
2022-09-30T15:48:07.619Z,12.15
2022-09-30T15:50:52.854Z,11.88
2022-09-30T15:53:25.689Z,11.75
2022-09-30T15:55:53.457Z,12.02
2022-09-30T15:58:38.040Z,12.26
2022-09-30T16:01:21.702Z,12.11
2022-09-30T16:03:54.894Z,11.95
2022-09-30T16:06:28.781Z,11.85
2022-09-30T16:09:03.242Z,11.63
2022-09-30T16:11:40.919Z,11.49
2022-09-30T16:14:32.509Z,11.38
2022-09-30T16:17:02.535Z,11.33
2022-09-30T16:19:32.686Z,11.22
2022-09-30T16:22:00.231Z,11.17
2022-09-30T16:24:30.854Z,11.03
2022-09-30T16:27:01.266Z,10.89
2022-09-30T16:29:29.215Z,10.73
2022-09-30T16:31:56.893Z,10.58
2022-09-30T16:34:29.759Z,10.52
2022-09-30T16:37:10.907Z,10.46
2022-09-30T16:39:37.762Z,10.41
2022-09-30T16:42:04.621Z,10.34
2022-09-30T16:44:35.982Z,10.37
2022-09-30T16:47:03.132Z,10.33
2022-09-30T16:49:29.701Z,10.30
2022-09-30T16:51:56.252Z,10.18
2022-09-30T16:54:22.846Z,10.15
2022-09-30T16:56:49.568Z,10.07
2022-09-30T16:59:17.768Z,9.92
2022-09-30T17:01:44.718Z,9.86
2022-09-30T17:04:14.160Z,9.75
2022-09-30T17:06:44.612Z,9.67
2022-09-30T17:09:11.245Z,9.53
2022-09-30T17:11:38.314Z,9.41
2022-09-30T17:14:06.667Z,9.32
2022-09-30T17:16:34.202Z,9.22
2022-09-30T17:19:01.041Z,9.09
2022-09-30T17:21:28.097Z,9.00
2022-09-30T17:23:55.291Z,8.88
2022-09-30T17:26:22.498Z,8.80
2022-09-30T17:28:49.263Z,8.74
2022-09-30T17:31:16.076Z,8.76
2022-09-30T17:33:43.083Z,8.70
2022-09-30T17:36:12.356Z,8.70
2022-09-30T17:38:39.777Z,8.65
2022-09-30T17:41:25.379Z,8.59
2022-09-30T17:43:51.987Z,8.56
2022-09-30T17:46:23.522Z,8.51
2022-09-30T17:48:54.493Z,8.48
2022-09-30T17:51:21.424Z,8.43
2022-09-30T17:53:49.262Z,8.39
2022-09-30T17:56:20.385Z,8.33
2022-09-30T17:58:50.710Z,8.30
2022-09-30T18:01:20.749Z,8.25
2022-09-30T18:03:48.121Z,8.20
2022-09-30T18:06:14.899Z,8.12
2022-09-30T18:08:41.836Z,8.08
2022-09-30T18:11:10.242Z,8.05
2022-09-30T18:13:38.138Z,8.00
2022-09-30T18:16:08.522Z,7.98
2022-09-30T18:18:36.021Z,7.98
2022-09-30T18:21:02.801Z,8.01
2022-09-30T18:23:29.777Z,8.07
2022-09-30T18:25:58.064Z,8.10
2022-09-30T18:28:25.450Z,8.22
2022-09-30T18:30:52.496Z,8.20
2022-09-30T18:33:21.642Z,8.22
2022-09-30T18:35:51.202Z,8.25
2022-09-30T18:38:18.764Z,8.25
2022-09-30T18:40:45.882Z,8.28
2022-09-30T18:43:14.641Z,8.31
2022-09-30T18:45:43.907Z,8.26
2022-09-30T18:48:11.223Z,8.24
2022-09-30T18:50:38.910Z,8.18
2022-09-30T18:53:10.051Z,8.21
2022-09-30T18:55:40.159Z,8.24
2022-09-30T18:58:07.132Z,8.30
2022-09-30T19:00:33.838Z,8.37
2022-09-30T19:03:01.193Z,8.39
2022-09-30T19:05:28.185Z,8.40
2022-09-30T19:07:55.926Z,8.37
2022-09-30T19:10:24.624Z,8.36
2022-09-30T19:12:52.466Z,8.37
2022-09-30T19:15:19.720Z,8.34
2022-09-30T19:17:46.763Z,8.35
2022-09-30T19:20:15.487Z,8.32
2022-09-30T19:22:42.554Z,8.38
2022-09-30T19:25:11.933Z,8.35
2022-09-30T19:27:41.066Z,8.36
2022-09-30T19:30:09.855Z,8.36
2022-09-30T19:32:36.748Z,8.40
2022-09-30T19:35:10.418Z,8.39
2022-09-30T19:37:37.859Z,8.35
2022-09-30T19:40:19.842Z,8.34
2022-09-30T19:42:48.584Z,8.29
2022-09-30T19:45:16.414Z,8.25
2022-09-30T19:47:43.360Z,8.24
2022-09-30T19:50:10.420Z,8.18
2022-09-30T19:52:45.082Z,8.12
2022-09-30T19:55:16.945Z,8.12
2022-09-30T19:57:43.919Z,8.12
2022-09-30T20:00:13.012Z,8.08
2022-09-30T20:02:39.841Z,8.05
2022-09-30T20:05:07.419Z,8.07
2022-09-30T20:07:35.266Z,8.04
2022-09-30T20:10:03.718Z,8.11
2022-09-30T20:12:30.456Z,8.06
2022-09-30T20:15:15.924Z,8.08
2022-09-30T20:17:43.593Z,8.08
2022-09-30T20:20:29.001Z,8.04
2022-09-30T20:22:57.215Z,8.05
2022-09-30T20:25:23.838Z,8.03
2022-09-30T20:27:52.667Z,8.04
2022-09-30T20:30:20.839Z,8.09
2022-09-30T20:32:47.535Z,8.11
2022-09-30T20:35:14.283Z,8.11
2022-09-30T20:37:42.340Z,8.09
2022-09-30T20:40:09.975Z,8.11
2022-09-30T20:42:38.829Z,8.16
2022-09-30T20:45:10.763Z,8.12
2022-09-30T20:47:38.790Z,8.10
2022-09-30T20:50:07.667Z,8.12
2022-09-30T20:52:34.472Z,8.08
2022-09-30T20:55:01.237Z,8.19
2022-09-30T20:57:32.277Z,8.22
2022-09-30T21:00:00.399Z,8.15
2022-09-30T21:02:28.349Z,8.23
2022-09-30T21:04:58.146Z,8.26
2022-09-30T21:07:26.309Z,8.23
2022-09-30T21:09:53.245Z,8.25
2022-09-30T21:12:20.030Z,8.29
2022-09-30T21:14:46.811Z,8.27
2022-09-30T21:17:13.431Z,8.19
2022-09-30T21:19:40.393Z,8.18
2022-09-30T21:22:07.744Z,8.17
2022-09-30T21:24:34.438Z,8.13
2022-09-30T21:27:01.813Z,8.07
2022-09-30T21:29:30.676Z,8.07
2022-09-30T21:31:57.553Z,8.06
2022-09-30T21:34:24.685Z,8.06
2022-09-30T21:36:51.618Z,8.07
2022-09-30T21:39:18.374Z,8.05
2022-09-30T21:41:46.221Z,8.07
2022-09-30T21:44:14.047Z,8.03
2022-09-30T21:46:44.707Z,8.09
2022-09-30T21:49:21.652Z,8.12
2022-09-30T21:51:48.466Z,8.17
2022-09-30T21:54:15.395Z,8.18
2022-09-30T21:56:43.155Z,8.21
2022-09-30T21:59:10.787Z,8.28
2022-09-30T22:01:37.601Z,8.35
2022-09-30T22:04:05.392Z,8.36
2022-09-30T22:06:32.325Z,8.31
2022-09-30T22:09:01.998Z,8.39
2022-09-30T22:11:30.788Z,8.39
2022-09-30T22:13:59.386Z,8.36
2022-09-30T22:16:29.999Z,8.39
2022-09-30T22:19:02.516Z,8.39
2022-09-30T22:21:32.285Z,8.36
2022-09-30T22:24:04.835Z,8.38
2022-09-30T22:26:33.063Z,8.35
2022-09-30T22:29:03.114Z,8.28
2022-09-30T22:31:32.244Z,8.33
2022-09-30T22:34:21.656Z,8.32
2022-09-30T22:37:07.399Z,8.35
2022-09-30T22:39:34.477Z,8.40
2022-09-30T22:42:01.753Z,8.43
2022-09-30T22:44:35.009Z,8.39
2022-09-30T22:47:02.415Z,8.39
2022-09-30T22:49:33.243Z,8.37
2022-09-30T22:52:01.176Z,8.36
2022-09-30T22:54:29.167Z,8.37
2022-09-30T22:56:56.398Z,8.37
2022-09-30T22:59:24.120Z,8.43
2022-09-30T23:01:51.358Z,8.40
2022-09-30T23:04:18.937Z,8.45
2022-09-30T23:06:52.882Z,8.51
2022-09-30T23:09:20.893Z,8.47
2022-09-30T23:11:48.887Z,8.46
2022-09-30T23:14:16.893Z,8.54
2022-09-30T23:16:43.635Z,8.54
2022-09-30T23:19:10.404Z,8.58
2022-09-30T23:21:38.590Z,8.58
2022-09-30T23:24:05.627Z,8.59
2022-09-30T23:26:32.404Z,8.59
2022-09-30T23:29:01.410Z,8.64
2022-09-30T23:31:28.457Z,8.59
2022-09-30T23:33:57.608Z,8.55
2022-09-30T23:36:29.382Z,8.67
2022-09-30T23:39:02.107Z,8.65
2022-09-30T23:41:29.884Z,8.71
2022-09-30T23:43:56.780Z,8.72
2022-09-30T23:46:23.977Z,8.68
2022-09-30T23:48:50.716Z,8.65
2022-09-30T23:51:19.408Z,8.75
2022-09-30T23:53:46.266Z,8.74
2022-09-30T23:56:15.613Z,8.74
2022-09-30T23:58:43.820Z,8.78
